sensor_id;sensor_type;location;lat;lon;timestamp;pressure;altitude;pressure_sealevel;temperature;humidity
49709;BME280;35601;55.902;13.606;2023-03-20T00:01:47;100566.01;;;4.57;79.37
49709;BME280;35601;55.902;13.606;2023-03-20T00:04:11;100562.16;;;4.38;79.32
49709;BME280;35601;55.902;13.606;2023-03-20T00:06:37;100556.62;;;4.44;78.99
49709;BME280;35601;55.902;13.606;2023-03-20T00:09:03;100556.15;;;4.16;80.34
49709;BME280;35601;55.902;13.606;2023-03-20T00:11:29;100553.20;;;4.66;79.93
49709;BME280;35601;55.902;13.606;2023-03-20T00:13:56;100550.91;;;4.51;79.64
49709;BME280;35601;55.902;13.606;2023-03-20T00:16:19;100547.80;;;4.29;79.83
49709;BME280;35601;55.902;13.606;2023-03-20T00:18:44;100546.74;;;4.59;79.72
49709;BME280;35601;55.902;13.606;2023-03-20T00:21:15;100545.52;;;4.49;79.48
49709;BME280;35601;55.902;13.606;2023-03-20T00:23:35;100544.17;;;4.56;79.21
49709;BME280;35601;55.902;13.606;2023-03-20T00:26:00;100540.17;;;4.55;78.90
49709;BME280;35601;55.902;13.606;2023-03-20T00:28:34;100532.76;;;4.15;79.81
49709;BME280;35601;55.902;13.606;2023-03-20T00:30:52;100526.83;;;3.79;81.35
49709;BME280;35601;55.902;13.606;2023-03-20T00:33:17;100523.93;;;3.85;81.43
49709;BME280;35601;55.902;13.606;2023-03-20T00:35:43;100523.78;;;4.00;81.22
49709;BME280;35601;55.902;13.606;2023-03-20T00:38:08;100521.43;;;4.41;80.70
49709;BME280;35601;55.902;13.606;2023-03-20T00:40:34;100523.77;;;4.51;80.45
49709;BME280;35601;55.902;13.606;2023-03-20T00:43:01;100522.79;;;4.35;80.16
49709;BME280;35601;55.902;13.606;2023-03-20T00:45:25;100518.94;;;4.64;80.04
49709;BME280;35601;55.902;13.606;2023-03-20T00:47:50;100515.88;;;4.41;80.09
49709;BME280;35601;55.902;13.606;2023-03-20T00:50:18;100508.78;;;4.46;79.87
49709;BME280;35601;55.902;13.606;2023-03-20T00:52:41;100509.68;;;4.44;79.92
49709;BME280;35601;55.902;13.606;2023-03-20T00:55:08;100504.10;;;4.45;79.90
49709;BME280;35601;55.902;13.606;2023-03-20T00:57:38;100499.29;;;4.48;79.94
49709;BME280;35601;55.902;13.606;2023-03-20T01:00:00;100493.81;;;4.20;80.57
49709;BME280;35601;55.902;13.606;2023-03-20T01:02:25;100489.17;;;4.05;81.16
49709;BME280;35601;55.902;13.606;2023-03-20T01:04:49;100496.87;;;4.14;81.22
49709;BME280;35601;55.902;13.606;2023-03-20T01:07:14;100493.83;;;4.32;81.37
49709;BME280;35601;55.902;13.606;2023-03-20T01:09:40;100494.43;;;4.17;82.93
49709;BME280;35601;55.902;13.606;2023-03-20T01:12:06;100491.19;;;4.09;83.90
49709;BME280;35601;55.902;13.606;2023-03-20T01:14:32;100486.78;;;3.91;83.95
49709;BME280;35601;55.902;13.606;2023-03-20T01:16:57;100486.87;;;4.36;83.26
49709;BME280;35601;55.902;13.606;2023-03-20T01:19:23;100484.84;;;4.22;83.53
49709;BME280;35601;55.902;13.606;2023-03-20T01:21:48;100487.20;;;4.24;83.74
49709;BME280;35601;55.902;13.606;2023-03-20T01:24:13;100481.65;;;4.15;84.13
49709;BME280;35601;55.902;13.606;2023-03-20T01:26:41;100484.18;;;4.12;84.26
49709;BME280;35601;55.902;13.606;2023-03-20T01:29:15;100483.08;;;3.89;84.43
49709;BME280;35601;55.902;13.606;2023-03-20T01:31:30;100478.71;;;4.13;84.62
49709;BME280;35601;55.902;13.606;2023-03-20T01:33:56;100486.04;;;4.41;83.66
49709;BME280;35601;55.902;13.606;2023-03-20T01:36:22;100483.04;;;4.54;83.02
49709;BME280;35601;55.902;13.606;2023-03-20T01:38:53;100479.41;;;4.46;82.72
49709;BME280;35601;55.902;13.606;2023-03-20T01:41:14;100479.42;;;4.56;82.31
49709;BME280;35601;55.902;13.606;2023-03-20T01:43:38;100471.81;;;4.89;82.02
49709;BME280;35601;55.902;13.606;2023-03-20T01:46:16;100467.99;;;4.78;81.67
49709;BME280;35601;55.902;13.606;2023-03-20T01:50:54;100468.10;;;4.58;81.40
49709;BME280;35601;55.902;13.606;2023-03-20T01:53:22;100468.19;;;4.69;81.16
49709;BME280;35601;55.902;13.606;2023-03-20T01:55:46;100468.49;;;4.78;80.99
49709;BME280;35601;55.902;13.606;2023-03-20T01:58:14;100467.95;;;4.84;80.91
49709;BME280;35601;55.902;13.606;2023-03-20T02:00:36;100467.38;;;4.65;80.74
49709;BME280;35601;55.902;13.606;2023-03-20T02:03:03;100466.26;;;4.79;80.74
49709;BME280;35601;55.902;13.606;2023-03-20T02:05:27;100466.23;;;4.91;81.40
49709;BME280;35601;55.902;13.606;2023-03-20T02:08:04;100463.28;;;4.69;81.75
49709;BME280;35601;55.902;13.606;2023-03-20T02:10:17;100463.24;;;4.47;83.07
49709;BME280;35601;55.902;13.606;2023-03-20T02:12:44;100466.13;;;4.62;84.23
49709;BME280;35601;55.902;13.606;2023-03-20T02:15:10;100466.33;;;4.60;84.86
49709;BME280;35601;55.902;13.606;2023-03-20T02:17:34;100468.19;;;4.58;84.97
49709;BME280;35601;55.902;13.606;2023-03-20T02:20:08;100472.20;;;4.71;85.80
49709;BME280;35601;55.902;13.606;2023-03-20T02:27:21;100480.29;;;4.41;86.31
49709;BME280;35601;55.902;13.606;2023-03-20T02:32:22;100483.78;;;4.48;87.58
49709;BME280;35601;55.902;13.606;2023-03-20T02:39:35;100482.75;;;4.37;88.69
49709;BME280;35601;55.902;13.606;2023-03-20T02:41:54;100474.72;;;4.32;89.06
49709;BME280;35601;55.902;13.606;2023-03-20T02:44:19;100470.45;;;4.39;88.95
49709;BME280;35601;55.902;13.606;2023-03-20T02:46:45;100470.72;;;4.24;89.58
49709;BME280;35601;55.902;13.606;2023-03-20T02:49:11;100471.66;;;4.34;89.21
49709;BME280;35601;55.902;13.606;2023-03-20T02:51:36;100469.63;;;4.36;89.19
49709;BME280;35601;55.902;13.606;2023-03-20T02:54:02;100462.19;;;4.31;89.40
49709;BME280;35601;55.902;13.606;2023-03-20T02:56:28;100459.28;;;4.03;89.48
49709;BME280;35601;55.902;13.606;2023-03-20T02:58:50;100456.43;;;4.30;89.32
49709;BME280;35601;55.902;13.606;2023-03-20T03:01:15;100453.86;;;4.35;89.14
49709;BME280;35601;55.902;13.606;2023-03-20T03:03:43;100453.90;;;4.48;87.92
49709;BME280;35601;55.902;13.606;2023-03-20T03:06:07;100450.95;;;4.57;88.11
49709;BME280;35601;55.902;13.606;2023-03-20T03:08:32;100450.42;;;4.67;87.69
49709;BME280;35601;55.902;13.606;2023-03-20T03:10:58;100450.41;;;4.75;87.41
49709;BME280;35601;55.902;13.606;2023-03-20T03:13:25;100445.68;;;4.67;87.07
49709;BME280;35601;55.902;13.606;2023-03-20T03:15:47;100448.12;;;4.49;86.63
49709;BME280;35601;55.902;13.606;2023-03-20T03:18:16;100446.97;;;4.78;86.57
49709;BME280;35601;55.902;13.606;2023-03-20T03:20:37;100447.55;;;4.85;86.22
49709;BME280;35601;55.902;13.606;2023-03-20T03:23:01;100447.01;;;5.12;85.52
49709;BME280;35601;55.902;13.606;2023-03-20T03:25:31;100448.31;;;4.64;86.45
49709;BME280;35601;55.902;13.606;2023-03-20T03:27:58;100449.29;;;4.60;87.36
49709;BME280;35601;55.902;13.606;2023-03-20T03:30:23;100445.30;;;4.51;87.69
49709;BME280;35601;55.902;13.606;2023-03-20T03:32:46;100440.19;;;4.22;88.08
49709;BME280;35601;55.902;13.606;2023-03-20T03:35:15;100441.57;;;4.02;89.04
49709;BME280;35601;55.902;13.606;2023-03-20T03:37:43;100442.16;;;4.22;88.68
49709;BME280;35601;55.902;13.606;2023-03-20T03:40:06;100436.65;;;3.95;89.37
49709;BME280;35601;55.902;13.606;2023-03-20T03:42:31;100431.30;;;4.23;89.45
49709;BME280;35601;55.902;13.606;2023-03-20T03:44:55;100428.82;;;4.03;90.04
49709;BME280;35601;55.902;13.606;2023-03-20T03:47:21;100428.79;;;4.06;90.67
49709;BME280;35601;55.902;13.606;2023-03-20T03:49:46;100424.14;;;4.02;90.32
49709;BME280;35601;55.902;13.606;2023-03-20T03:52:12;100421.79;;;3.88;91.08
49709;BME280;35601;55.902;13.606;2023-03-20T03:54:38;100424.32;;;3.85;91.08
49709;BME280;35601;55.902;13.606;2023-03-20T03:56:58;100418.58;;;3.63;91.83
49709;BME280;35601;55.902;13.606;2023-03-20T03:59:27;100424.66;;;3.74;93.35
49709;BME280;35601;55.902;13.606;2023-03-20T04:01:49;100421.99;;;3.65;92.69
49709;BME280;35601;55.902;13.606;2023-03-20T04:04:14;100415.99;;;3.86;92.79
49709;BME280;35601;55.902;13.606;2023-03-20T04:06:39;100412.76;;;3.49;92.18
49709;BME280;35601;55.902;13.606;2023-03-20T04:09:06;100414.96;;;4.02;91.95
49709;BME280;35601;55.902;13.606;2023-03-20T04:11:30;100413.35;;;3.66;91.28
49709;BME280;35601;55.902;13.606;2023-03-20T04:13:56;100413.26;;;3.81;90.87
49709;BME280;35601;55.902;13.606;2023-03-20T04:16:22;100411.21;;;3.92;90.17
49709;BME280;35601;55.902;13.606;2023-03-20T04:18:47;100407.61;;;4.02;89.78
49709;BME280;35601;55.902;13.606;2023-03-20T04:21:14;100402.57;;;4.12;90.10
49709;BME280;35601;55.902;13.606;2023-03-20T04:23:39;100398.43;;;3.71;90.72
49709;BME280;35601;55.902;13.606;2023-03-20T04:26:05;100397.52;;;3.90;90.75
49709;BME280;35601;55.902;13.606;2023-03-20T04:28:29;100393.01;;;3.65;90.74
49709;BME280;35601;55.902;13.606;2023-03-20T04:30:56;100391.93;;;3.85;90.93
49709;BME280;35601;55.902;13.606;2023-03-20T04:33:20;100394.06;;;3.91;90.80
49709;BME280;35601;55.902;13.606;2023-03-20T04:35:46;100391.35;;;3.52;91.12
49709;BME280;35601;55.902;13.606;2023-03-20T04:38:13;100390.24;;;3.74;91.30
49709;BME280;35601;55.902;13.606;2023-03-20T04:40:36;100388.64;;;3.45;91.50
49709;BME280;35601;55.902;13.606;2023-03-20T04:43:02;100390.04;;;3.93;91.62
49709;BME280;35601;55.902;13.606;2023-03-20T04:45:27;100384.88;;;3.66;92.66
49709;BME280;35601;55.902;13.606;2023-03-20T04:47:52;100390.55;;;3.58;92.99
49709;BME280;35601;55.902;13.606;2023-03-20T04:50:19;100395.73;;;3.49;93.46
49709;BME280;35601;55.902;13.606;2023-03-20T04:52:43;100395.26;;;3.39;93.81
49709;BME280;35601;55.902;13.606;2023-03-20T04:55:08;100397.04;;;3.30;94.09
49709;BME280;35601;55.902;13.606;2023-03-20T04:57:33;100397.23;;;3.23;94.88
49709;BME280;35601;55.902;13.606;2023-03-20T04:59:59;100397.12;;;3.10;95.43
49709;BME280;35601;55.902;13.606;2023-03-20T05:02:24;100399.89;;;3.46;95.31
49709;BME280;35601;55.902;13.606;2023-03-20T05:04:50;100399.69;;;3.39;94.91
49709;BME280;35601;55.902;13.606;2023-03-20T05:07:15;100399.07;;;3.58;94.18
49709;BME280;35601;55.902;13.606;2023-03-20T05:09:42;100400.24;;;3.55;94.61
49709;BME280;35601;55.902;13.606;2023-03-20T05:12:08;100398.32;;;3.50;93.95
49709;BME280;35601;55.902;13.606;2023-03-20T05:14:32;100400.23;;;3.69;93.91
49709;BME280;35601;55.902;13.606;2023-03-20T05:16:58;100401.94;;;3.66;93.75
49709;BME280;35601;55.902;13.606;2023-03-20T05:19:24;100397.88;;;3.52;93.35
49709;BME280;35601;55.902;13.606;2023-03-20T05:21:49;100403.21;;;3.93;92.82
49709;BME280;35601;55.902;13.606;2023-03-20T05:24:15;100400.70;;;3.94;92.59
49709;BME280;35601;55.902;13.606;2023-03-20T05:26:40;100402.19;;;3.92;92.26
49709;BME280;35601;55.902;13.606;2023-03-20T05:29:05;100406.07;;;3.69;92.16
49709;BME280;35601;55.902;13.606;2023-03-20T05:31:32;100406.69;;;3.54;92.39
49709;BME280;35601;55.902;13.606;2023-03-20T05:33:56;100403.91;;;3.45;92.38
49709;BME280;35601;55.902;13.606;2023-03-20T05:36:21;100404.97;;;3.94;92.22
49709;BME280;35601;55.902;13.606;2023-03-20T05:38:47;100403.94;;;3.62;92.18
49709;BME280;35601;55.902;13.606;2023-03-20T05:41:12;100405.61;;;3.95;92.07
49709;BME280;35601;55.902;13.606;2023-03-20T05:43:37;100406.25;;;3.64;91.36
49709;BME280;35601;55.902;13.606;2023-03-20T05:46:02;100406.81;;;3.46;92.03
49709;BME280;35601;55.902;13.606;2023-03-20T05:48:28;100402.53;;;3.99;91.84
49709;BME280;35601;55.902;13.606;2023-03-20T05:50:53;100398.79;;;3.65;91.35
49709;BME280;35601;55.902;13.606;2023-03-20T05:53:18;100400.79;;;3.60;91.20
49709;BME280;35601;55.902;13.606;2023-03-20T05:55:44;100406.40;;;3.61;91.42
49709;BME280;35601;55.902;13.606;2023-03-20T05:58:09;100405.88;;;3.83;91.35
49709;BME280;35601;55.902;13.606;2023-03-20T06:00:35;100400.95;;;3.76;91.54
49709;BME280;35601;55.902;13.606;2023-03-20T06:03:00;100400.54;;;3.51;91.94
49709;BME280;35601;55.902;13.606;2023-03-20T06:05:28;100398.86;;;3.71;91.83
49709;BME280;35601;55.902;13.606;2023-03-20T06:07:52;100398.80;;;3.55;92.37
49709;BME280;35601;55.902;13.606;2023-03-20T06:10:17;100398.42;;;3.79;92.70
49709;BME280;35601;55.902;13.606;2023-03-20T06:12:43;100394.11;;;3.83;92.40
49709;BME280;35601;55.902;13.606;2023-03-20T06:15:09;100397.25;;;3.66;93.03
49709;BME280;35601;55.902;13.606;2023-03-20T06:17:34;100399.82;;;3.43;92.94
49709;BME280;35601;55.902;13.606;2023-03-20T06:19:59;100400.72;;;3.47;93.62
49709;BME280;35601;55.902;13.606;2023-03-20T06:22:25;100401.29;;;3.58;93.25
49709;BME280;35601;55.902;13.606;2023-03-20T06:24:50;100400.33;;;3.56;93.08
49709;BME280;35601;55.902;13.606;2023-03-20T06:27:16;100397.67;;;3.54;93.24
49709;BME280;35601;55.902;13.606;2023-03-20T06:29:41;100398.35;;;3.27;93.54
49709;BME280;35601;55.902;13.606;2023-03-20T06:32:06;100395.85;;;3.52;93.64
49709;BME280;35601;55.902;13.606;2023-03-20T06:34:32;100395.68;;;3.44;93.76
49709;BME280;35601;55.902;13.606;2023-03-20T06:36:58;100396.13;;;3.27;93.57
49709;BME280;35601;55.902;13.606;2023-03-20T06:39:23;100398.93;;;3.24;93.72
49709;BME280;35601;55.902;13.606;2023-03-20T06:41:48;100398.53;;;3.54;93.52
49709;BME280;35601;55.902;13.606;2023-03-20T06:44:13;100402.78;;;3.51;93.59
49709;BME280;35601;55.902;13.606;2023-03-20T06:46:40;100399.21;;;3.42;93.98
49709;BME280;35601;55.902;13.606;2023-03-20T06:49:05;100395.83;;;3.41;94.08
49709;BME280;35601;55.902;13.606;2023-03-20T06:51:30;100394.43;;;3.27;94.67
49709;BME280;35601;55.902;13.606;2023-03-20T06:53:55;100398.52;;;3.29;94.97
49709;BME280;35601;55.902;13.606;2023-03-20T06:56:22;100408.71;;;3.33;94.72
49709;BME280;35601;55.902;13.606;2023-03-20T06:58:47;100409.58;;;3.42;94.44
49709;BME280;35601;55.902;13.606;2023-03-20T07:01:14;100412.97;;;3.51;94.14
49709;BME280;35601;55.902;13.606;2023-03-20T07:03:38;100416.78;;;3.29;94.17
49709;BME280;35601;55.902;13.606;2023-03-20T07:06:05;100418.40;;;3.75;93.73
49709;BME280;35601;55.902;13.606;2023-03-20T07:08:27;100420.11;;;3.60;93.15
49709;BME280;35601;55.902;13.606;2023-03-20T07:10:53;100419.80;;;3.76;92.48
49709;BME280;35601;55.902;13.606;2023-03-20T07:13:19;100421.02;;;3.62;91.57
49709;BME280;35601;55.902;13.606;2023-03-20T07:15:44;100424.26;;;3.81;91.92
49709;BME280;35601;55.902;13.606;2023-03-20T07:18:10;100426.27;;;3.97;91.58
49709;BME280;35601;55.902;13.606;2023-03-20T07:20:37;100428.17;;;3.96;91.68
49709;BME280;35601;55.902;13.606;2023-03-20T07:23:02;100428.80;;;3.77;91.31
49709;BME280;35601;55.902;13.606;2023-03-20T07:25:26;100425.55;;;3.78;91.50
49709;BME280;35601;55.902;13.606;2023-03-20T07:27:52;100426.59;;;4.36;91.14
49709;BME280;35601;55.902;13.606;2023-03-20T07:30:17;100427.18;;;3.93;91.18
49709;BME280;35601;55.902;13.606;2023-03-20T07:32:42;100429.35;;;3.92;91.09
49709;BME280;35601;55.902;13.606;2023-03-20T07:35:08;100431.89;;;3.92;91.28
49709;BME280;35601;55.902;13.606;2023-03-20T07:37:33;100434.92;;;4.16;91.36
49709;BME280;35601;55.902;13.606;2023-03-20T07:39:58;100432.62;;;4.02;91.18
49709;BME280;35601;55.902;13.606;2023-03-20T07:42:26;100434.69;;;4.12;91.02
49709;BME280;35601;55.902;13.606;2023-03-20T07:44:49;100439.14;;;4.22;90.60
49709;BME280;35601;55.902;13.606;2023-03-20T07:47:14;100440.20;;;4.20;90.27
49709;BME280;35601;55.902;13.606;2023-03-20T07:49:40;100437.99;;;4.12;90.35
49709;BME280;35601;55.902;13.606;2023-03-20T07:52:05;100433.07;;;3.85;91.64
49709;BME280;35601;55.902;13.606;2023-03-20T07:54:30;100432.58;;;4.13;91.27
49709;BME280;35601;55.902;13.606;2023-03-20T07:56:55;100438.04;;;4.17;91.56
49709;BME280;35601;55.902;13.606;2023-03-20T07:59:20;100438.09;;;4.37;91.16
49709;BME280;35601;55.902;13.606;2023-03-20T08:01:45;100439.48;;;4.06;91.25
49709;BME280;35601;55.902;13.606;2023-03-20T08:04:12;100438.21;;;4.11;91.22
49709;BME280;35601;55.902;13.606;2023-03-20T08:06:38;100439.46;;;4.19;91.07
49709;BME280;35601;55.902;13.606;2023-03-20T08:09:02;100439.06;;;4.68;91.26
49709;BME280;35601;55.902;13.606;2023-03-20T08:11:27;100441.37;;;4.21;91.23
49709;BME280;35601;55.902;13.606;2023-03-20T08:13:53;100439.22;;;4.01;91.60
49709;BME280;35601;55.902;13.606;2023-03-20T08:16:18;100437.77;;;4.04;91.38
49709;BME280;35601;55.902;13.606;2023-03-20T08:18:43;100439.86;;;3.98;91.36
49709;BME280;35601;55.902;13.606;2023-03-20T08:21:10;100440.67;;;4.09;90.94
49709;BME280;35601;55.902;13.606;2023-03-20T08:23:36;100438.13;;;4.22;91.01
49709;BME280;35601;55.902;13.606;2023-03-20T08:26:01;100436.34;;;4.15;91.68
49709;BME280;35601;55.902;13.606;2023-03-20T08:28:26;100439.26;;;4.14;91.47
49709;BME280;35601;55.902;13.606;2023-03-20T08:30:51;100438.40;;;3.74;92.10
49709;BME280;35601;55.902;13.606;2023-03-20T08:33:18;100437.97;;;4.14;92.34
49709;BME280;35601;55.902;13.606;2023-03-20T08:35:42;100443.45;;;4.00;92.21
49709;BME280;35601;55.902;13.606;2023-03-20T08:38:10;100441.67;;;4.40;91.92
49709;BME280;35601;55.902;13.606;2023-03-20T08:40:34;100441.99;;;4.00;91.52
49709;BME280;35601;55.902;13.606;2023-03-20T08:43:00;100438.17;;;4.03;91.21
49709;BME280;35601;55.902;13.606;2023-03-20T08:45:25;100439.38;;;4.09;90.91
49709;BME280;35601;55.902;13.606;2023-03-20T08:47:51;100439.71;;;4.05;90.69
49709;BME280;35601;55.902;13.606;2023-03-20T08:50:17;100438.85;;;4.32;90.70
49709;BME280;35601;55.902;13.606;2023-03-20T08:52:42;100435.85;;;4.10;90.57
49709;BME280;35601;55.902;13.606;2023-03-20T08:55:08;100431.47;;;3.76;91.25
49709;BME280;35601;55.902;13.606;2023-03-20T08:57:33;100433.40;;;3.84;91.33
49709;BME280;35601;55.902;13.606;2023-03-20T08:59:59;100434.45;;;3.79;91.20
49709;BME280;35601;55.902;13.606;2023-03-20T09:02:24;100434.47;;;3.89;91.58
49709;BME280;35601;55.902;13.606;2023-03-20T09:04:49;100432.64;;;4.09;91.90
49709;BME280;35601;55.902;13.606;2023-03-20T09:07:15;100429.94;;;3.89;91.72
49709;BME280;35601;55.902;13.606;2023-03-20T09:09:42;100427.09;;;4.07;91.46
49709;BME280;35601;55.902;13.606;2023-03-20T09:12:06;100428.37;;;4.09;91.81
49709;BME280;35601;55.902;13.606;2023-03-20T09:14:32;100431.85;;;3.99;92.12
49709;BME280;35601;55.902;13.606;2023-03-20T09:16:57;100434.22;;;3.75;91.96
49709;BME280;35601;55.902;13.606;2023-03-20T09:19:22;100439.53;;;3.94;92.08
49709;BME280;35601;55.902;13.606;2023-03-20T09:21:47;100435.82;;;3.69;91.97
49709;BME280;35601;55.902;13.606;2023-03-20T09:24:12;100435.37;;;3.74;91.87
49709;BME280;35601;55.902;13.606;2023-03-20T09:26:39;100435.29;;;3.96;91.78
49709;BME280;35601;55.902;13.606;2023-03-20T09:29:04;100435.05;;;3.33;91.87
49709;BME280;35601;55.902;13.606;2023-03-20T09:31:30;100437.65;;;3.72;92.15
49709;BME280;35601;55.902;13.606;2023-03-20T09:33:55;100432.89;;;3.93;91.69
49709;BME280;35601;55.902;13.606;2023-03-20T09:36:21;100433.89;;;3.95;91.50
49709;BME280;35601;55.902;13.606;2023-03-20T09:38:47;100432.42;;;3.45;91.47
49709;BME280;35601;55.902;13.606;2023-03-20T09:41:17;100425.61;;;3.69;91.44
49709;BME280;35601;55.902;13.606;2023-03-20T09:43:50;100432.60;;;3.99;91.46
49709;BME280;35601;55.902;13.606;2023-03-20T09:46:18;100434.65;;;3.84;91.13
49709;BME280;35601;55.902;13.606;2023-03-20T09:48:34;100434.60;;;3.55;91.43
49709;BME280;35601;55.902;13.606;2023-03-20T09:51:00;100432.64;;;3.97;91.01
49709;BME280;35601;55.902;13.606;2023-03-20T09:53:26;100431.56;;;3.77;90.97
49709;BME280;35601;55.902;13.606;2023-03-20T09:55:46;100432.88;;;4.11;90.55
49709;BME280;35601;55.902;13.606;2023-03-20T09:58:14;100433.80;;;3.79;90.54
49709;BME280;35601;55.902;13.606;2023-03-20T10:00:36;100434.95;;;3.97;90.36
49709;BME280;35601;55.902;13.606;2023-03-20T10:03:03;100437.27;;;4.05;90.23
49709;BME280;35601;55.902;13.606;2023-03-20T10:05:29;100436.56;;;4.02;90.39
49709;BME280;35601;55.902;13.606;2023-03-20T10:07:53;100433.55;;;4.05;90.11
49709;BME280;35601;55.902;13.606;2023-03-20T10:10:17;100434.10;;;4.00;89.89
49709;BME280;35601;55.902;13.606;2023-03-20T10:12:54;100431.67;;;4.00;89.85
49709;BME280;35601;55.902;13.606;2023-03-20T10:15:16;100435.39;;;4.05;89.61
49709;BME280;35601;55.902;13.606;2023-03-20T10:17:45;100433.43;;;4.13;89.07
49709;BME280;35601;55.902;13.606;2023-03-20T10:20:08;100434.22;;;4.29;88.58
49709;BME280;35601;55.902;13.606;2023-03-20T10:22:27;100433.15;;;4.33;88.88
49709;BME280;35601;55.902;13.606;2023-03-20T10:24:55;100430.16;;;4.45;88.29
49709;BME280;35601;55.902;13.606;2023-03-20T10:27:19;100426.96;;;4.46;88.50
49709;BME280;35601;55.902;13.606;2023-03-20T10:29:47;100424.35;;;4.57;88.38
49709;BME280;35601;55.902;13.606;2023-03-20T10:32:10;100422.56;;;4.65;89.11
49709;BME280;35601;55.902;13.606;2023-03-20T10:34:46;100422.81;;;4.73;88.53
49709;BME280;35601;55.902;13.606;2023-03-20T10:39:33;100425.34;;;4.84;87.24
49709;BME280;35601;55.902;13.606;2023-03-20T10:41:52;100425.28;;;4.85;87.57
49709;BME280;35601;55.902;13.606;2023-03-20T10:44:20;100423.67;;;4.73;87.82
49709;BME280;35601;55.902;13.606;2023-03-20T10:46:42;100422.63;;;4.91;87.54
49709;BME280;35601;55.902;13.606;2023-03-20T10:49:05;100426.23;;;4.73;87.71
49709;BME280;35601;55.902;13.606;2023-03-20T10:51:35;100424.67;;;5.02;87.11
49709;BME280;35601;55.902;13.606;2023-03-20T10:53:58;100427.46;;;4.73;87.16
49709;BME280;35601;55.902;13.606;2023-03-20T10:56:26;100428.20;;;4.95;87.24
49709;BME280;35601;55.902;13.606;2023-03-20T10:58:56;100428.21;;;4.87;86.59
49709;BME280;35601;55.902;13.606;2023-03-20T11:01:09;100426.36;;;4.81;86.89
49709;BME280;35601;55.902;13.606;2023-03-20T11:03:34;100427.38;;;4.82;87.44
49709;BME280;35601;55.902;13.606;2023-03-20T11:06:02;100429.50;;;4.50;87.58
49709;BME280;35601;55.902;13.606;2023-03-20T11:08:30;100427.74;;;4.83;87.93
49709;BME280;35601;55.902;13.606;2023-03-20T11:10:58;100430.49;;;4.87;87.24
49709;BME280;35601;55.902;13.606;2023-03-20T11:13:22;100429.53;;;4.66;87.49
49709;BME280;35601;55.902;13.606;2023-03-20T11:15:41;100426.70;;;4.77;87.05
49709;BME280;35601;55.902;13.606;2023-03-20T11:18:10;100426.36;;;4.78;87.01
49709;BME280;35601;55.902;13.606;2023-03-20T11:20:34;100426.73;;;4.96;87.40
49709;BME280;35601;55.902;13.606;2023-03-20T11:22:58;100423.56;;;4.63;87.53
49709;BME280;35601;55.902;13.606;2023-03-20T11:25:27;100425.21;;;4.75;87.32
49709;BME280;35601;55.902;13.606;2023-03-20T11:27:47;100425.60;;;4.61;87.49
49709;BME280;35601;55.902;13.606;2023-03-20T11:30:16;100427.53;;;4.69;87.89
49709;BME280;35601;55.902;13.606;2023-03-20T11:32:41;100425.58;;;4.58;87.90
49709;BME280;35601;55.902;13.606;2023-03-20T11:35:09;100427.36;;;4.48;87.86
49709;BME280;35601;55.902;13.606;2023-03-20T11:37:33;100422.19;;;4.74;87.98
49709;BME280;35601;55.902;13.606;2023-03-20T11:39:57;100424.27;;;4.48;88.42
49709;BME280;35601;55.902;13.606;2023-03-20T11:42:22;100418.55;;;4.62;88.51
49709;BME280;35601;55.902;13.606;2023-03-20T11:47:12;100417.12;;;4.74;88.81
49709;BME280;35601;55.902;13.606;2023-03-20T11:52:09;100418.54;;;4.73;87.99
49709;BME280;35601;55.902;13.606;2023-03-20T11:54:26;100417.39;;;4.78;87.99
49709;BME280;35601;55.902;13.606;2023-03-20T11:56:52;100419.60;;;4.54;88.39
49709;BME280;35601;55.902;13.606;2023-03-20T11:59:19;100421.21;;;4.72;88.96
49709;BME280;35601;55.902;13.606;2023-03-20T12:01:43;100418.85;;;4.77;88.99
49709;BME280;35601;55.902;13.606;2023-03-20T12:04:10;100416.07;;;4.68;88.87
49709;BME280;35601;55.902;13.606;2023-03-20T12:06:42;100414.62;;;4.82;88.41
49709;BME280;35601;55.902;13.606;2023-03-20T12:09:01;100411.11;;;5.02;89.41
49709;BME280;35601;55.902;13.606;2023-03-20T12:13:49;100406.79;;;5.21;87.86
49709;BME280;35601;55.902;13.606;2023-03-20T12:16:16;100406.03;;;5.04;87.49
49709;BME280;35601;55.902;13.606;2023-03-20T12:18:41;100404.99;;;5.28;86.46
49709;BME280;35601;55.902;13.606;2023-03-20T12:21:09;100410.31;;;5.24;87.03
49709;BME280;35601;55.902;13.606;2023-03-20T12:23:32;100405.64;;;5.14;86.20
49709;BME280;35601;55.902;13.606;2023-03-20T12:25:58;100407.19;;;5.24;86.11
49709;BME280;35601;55.902;13.606;2023-03-20T12:28:25;100404.87;;;5.27;85.57
49709;BME280;35601;55.902;13.606;2023-03-20T12:30:55;100407.11;;;5.66;85.80
49709;BME280;35601;55.902;13.606;2023-03-20T12:33:14;100406.02;;;5.55;85.46
49709;BME280;35601;55.902;13.606;2023-03-20T12:35:40;100403.29;;;5.32;84.85
49709;BME280;35601;55.902;13.606;2023-03-20T12:38:01;100405.96;;;5.46;83.94
49709;BME280;35601;55.902;13.606;2023-03-20T12:40:35;100410.24;;;5.39;83.34
49709;BME280;35601;55.902;13.606;2023-03-20T12:43:00;100406.72;;;5.55;83.24
49709;BME280;35601;55.902;13.606;2023-03-20T12:45:20;100406.02;;;5.24;83.49
49709;BME280;35601;55.902;13.606;2023-03-20T12:47:54;100409.02;;;5.16;83.66
49709;BME280;35601;55.902;13.606;2023-03-20T12:50:13;100412.28;;;5.16;84.16
49709;BME280;35601;55.902;13.606;2023-03-20T12:52:41;100416.56;;;5.05;84.45
49709;BME280;35601;55.902;13.606;2023-03-20T12:55:10;100405.79;;;5.00;84.30
49709;BME280;35601;55.902;13.606;2023-03-20T12:57:28;100409.04;;;5.24;83.84
49709;BME280;35601;55.902;13.606;2023-03-20T13:00:03;100402.67;;;5.03;83.85
49709;BME280;35601;55.902;13.606;2023-03-20T13:04:50;100398.73;;;5.30;83.49
49709;BME280;35601;55.902;13.606;2023-03-20T13:07:12;100394.39;;;5.21;82.56